EGKB/BQH METAR and TAF weather

Enter ICAO airport designator
Station Type Date Time Source
EGKB METAR 2019/08/25 07:20 UTC NOAA

EGKB 250720Z 12003KT CAVOK 21/17 Q1018


Station Type Date Time Source
EGKB Decoded METAR 2019/08/25 07:20 UTC NOAA

Station name not available
Aug 25, 2019 - 03:20 AM EDT / 2019.08.25 0720 UTC
Wind: from the ESE (120 degrees) at 3 MPH (3 KT):0
Visibility: greater than 7 mile(s):0
Temperature: 69 F (21 C)
Dew Point: 62 F (17 C)
Relative Humidity: 77%
Pressure (altimeter): 30.06 in. Hg (1018 hPa)
ob: EGKB 250720Z 12003KT CAVOK 21/17 Q1018
cycle: 7

Station Type Date Time Source
EGKB TAF 2019/07/13 18:09 UTC NOAA

TAF EGKB 131706Z 1318/1422 03009KT 9999 SCT040 PROB30
TEMPO 1318/1320 8000 -SHRA

Example: see airport list